createdAt,value
2019-04-16T00:01:56.618Z,99.90
2019-04-16T00:07:52.428Z,99.90
2019-04-16T00:10:52.085Z,99.90
2019-04-16T00:13:51.842Z,99.90
2019-04-16T00:16:33.049Z,99.90
2019-04-16T00:19:13.511Z,99.90
2019-04-16T00:22:13.228Z,99.90
2019-04-16T00:24:56.387Z,99.90
2019-04-16T00:27:37.024Z,99.90
2019-04-16T00:30:18.122Z,99.90
2019-04-16T00:32:58.502Z,99.90
2019-04-16T00:35:39.037Z,99.90
2019-04-16T00:38:22.462Z,99.90
2019-04-16T00:41:02.728Z,99.90
2019-04-16T00:43:44.245Z,99.90
2019-04-16T00:46:25.107Z,99.90
2019-04-16T00:49:05.771Z,99.90
2019-04-16T00:51:46.848Z,99.90
2019-04-16T00:54:27.780Z,99.90
2019-04-16T00:57:08.427Z,99.90
2019-04-16T00:59:49.052Z,99.90
2019-04-16T01:02:29.938Z,99.90
2019-04-16T01:05:10.986Z,99.90
2019-04-16T01:07:51.591Z,99.90
2019-04-16T01:10:32.572Z,99.90
2019-04-16T01:13:13.505Z,99.90
2019-04-16T01:15:54.348Z,99.90
2019-04-16T01:18:38.532Z,99.90
2019-04-16T01:21:18.246Z,99.90
2019-04-16T01:23:58.984Z,99.90
2019-04-16T01:26:39.904Z,99.90
2019-04-16T01:29:20.458Z,99.90
2019-04-16T01:32:20.052Z,99.90
2019-04-16T01:35:20.305Z,99.90
2019-04-16T01:38:20.071Z,99.90
2019-04-16T01:41:02.482Z,99.90
2019-04-16T01:43:43.528Z,99.90
2019-04-16T01:46:24.511Z,99.90
2019-04-16T01:49:09.711Z,99.90
2019-04-16T01:51:48.185Z,99.90
2019-04-16T01:54:29.393Z,99.90
2019-04-16T01:57:10.105Z,99.90
2019-04-16T01:59:50.994Z,99.90
2019-04-16T02:02:31.768Z,99.90
2019-04-16T02:05:12.538Z,99.90
2019-04-16T02:07:53.239Z,99.90
2019-04-16T02:10:35.480Z,99.90
2019-04-16T02:13:17.082Z,99.90
2019-04-16T02:15:57.573Z,99.90
2019-04-16T02:18:38.213Z,99.90
2019-04-16T02:21:18.776Z,99.90
2019-04-16T02:23:59.932Z,99.90
2019-04-16T02:26:40.774Z,99.90
2019-04-16T02:29:21.474Z,99.90
2019-04-16T02:32:02.206Z,99.90
2019-04-16T02:34:43.145Z,99.90
2019-04-16T02:37:23.743Z,99.90
2019-04-16T02:40:04.239Z,99.90
2019-04-16T02:42:45.210Z,99.90
2019-04-16T02:45:25.661Z,99.90
2019-04-16T02:48:06.429Z,99.90
2019-04-16T02:50:49.628Z,99.90
2019-04-16T02:53:49.689Z,99.90
2019-04-16T02:56:52.049Z,99.90
2019-04-16T02:59:35.752Z,99.90
2019-04-16T03:02:36.061Z,99.90
2019-04-16T03:08:15.084Z,99.90
2019-04-16T03:10:55.817Z,99.90
2019-04-16T03:13:36.745Z,99.90
2019-04-16T03:19:33.448Z,99.90
2019-04-16T03:22:14.507Z,99.90
2019-04-16T03:24:55.535Z,99.90
2019-04-16T03:27:35.929Z,99.90
2019-04-16T03:30:16.629Z,99.90
2019-04-16T03:32:57.326Z,99.90
2019-04-16T03:35:38.525Z,99.90
2019-04-16T03:38:19.162Z,99.90
2019-04-16T03:40:59.608Z,99.90
2019-04-16T03:43:40.393Z,99.90
2019-04-16T03:46:21.178Z,99.90
2019-04-16T03:49:02.377Z,99.90
2019-04-16T03:51:42.997Z,99.90
2019-04-16T03:54:23.882Z,99.90
2019-04-16T03:57:05.112Z,99.90
2019-04-16T03:59:46.002Z,99.90
2019-04-16T04:02:26.817Z,99.90
2019-04-16T04:05:07.850Z,99.90
2019-04-16T04:07:49.088Z,99.90
2019-04-16T04:10:31.291Z,99.90
2019-04-16T04:13:17.533Z,99.90
2019-04-16T04:15:55.220Z,99.90
2019-04-16T04:18:36.291Z,99.90
2019-04-16T04:21:21.136Z,99.90
2019-04-16T04:24:00.708Z,99.90
2019-04-16T04:26:42.436Z,99.90
2019-04-16T04:29:24.882Z,99.90
2019-04-16T04:32:06.020Z,99.90
2019-04-16T04:34:48.696Z,99.90
2019-04-16T04:37:31.197Z,99.90
2019-04-16T04:40:12.949Z,99.90
2019-04-16T04:42:57.594Z,99.90
2019-04-16T04:45:37.714Z,99.90
2019-04-16T04:48:23.027Z,99.90
2019-04-16T04:51:06.994Z,99.90
2019-04-16T04:53:47.533Z,99.90
2019-04-16T04:56:28.136Z,99.90
2019-04-16T04:59:09.871Z,99.90
2019-04-16T05:01:51.407Z,99.90
2019-04-16T05:04:39.136Z,99.90
2019-04-16T05:07:20.559Z,99.90
2019-04-16T05:10:01.539Z,99.90
2019-04-16T05:12:45.879Z,99.90
2019-04-16T05:15:29.357Z,99.90
2019-04-16T05:18:10.799Z,99.90
2019-04-16T05:20:52.325Z,99.90
2019-04-16T05:23:33.459Z,99.90
2019-04-16T05:26:14.017Z,99.90
2019-04-16T05:28:56.672Z,99.90
2019-04-16T05:31:37.333Z,99.90
2019-04-16T05:34:18.435Z,99.90
2019-04-16T05:36:59.411Z,99.90
2019-04-16T05:39:40.561Z,99.90
2019-04-16T05:42:22.444Z,99.90
2019-04-16T05:45:05.660Z,99.90
2019-04-16T05:47:49.047Z,99.90
2019-04-16T05:50:30.100Z,99.90
2019-04-16T05:53:13.200Z,99.90
2019-04-16T05:56:13.241Z,99.90
2019-04-16T05:58:54.473Z,99.90
2019-04-16T06:01:39.273Z,99.90
2019-04-16T06:04:24.241Z,99.90
2019-04-16T06:07:07.334Z,99.90
2019-04-16T06:09:45.419Z,99.90
2019-04-16T06:12:33.154Z,99.90
2019-04-16T06:18:38.605Z,99.90
2019-04-16T06:21:38.765Z,99.90
2019-04-16T06:24:40.129Z,99.90
2019-04-16T06:27:17.071Z,99.90
2019-04-16T06:30:24.449Z,99.90
2019-04-16T06:33:31.507Z,99.90
2019-04-16T06:36:31.042Z,99.90
2019-04-16T06:39:18.161Z,99.90
2019-04-16T06:42:22.514Z,99.90
2019-04-16T06:48:13.991Z,99.90
2019-04-16T06:51:19.966Z,99.90
2019-04-16T06:54:21.255Z,99.90
2019-04-16T06:57:15.018Z,99.40
2019-04-16T07:00:15.301Z,98.30
2019-04-16T07:03:14.824Z,97.10
2019-04-16T07:06:14.800Z,94.70
2019-04-16T07:09:09.663Z,84.30
2019-04-16T07:11:54.551Z,68.00
2019-04-16T07:14:36.202Z,58.50
2019-04-16T07:17:18.290Z,55.90
2019-04-16T07:19:59.325Z,52.80
2019-04-16T07:22:40.013Z,51.10
2019-04-16T07:25:21.179Z,49.30
2019-04-16T07:28:06.706Z,51.40
2019-04-16T07:30:54.416Z,52.10
2019-04-16T07:33:42.652Z,52.60
2019-04-16T07:36:31.498Z,53.00
2019-04-16T07:39:36.926Z,53.40
2019-04-16T07:42:27.923Z,53.90
2019-04-16T07:45:21.248Z,53.60
2019-04-16T07:48:06.782Z,52.80
2019-04-16T07:51:07.173Z,52.60
2019-04-16T07:54:07.460Z,54.00
2019-04-16T07:56:49.938Z,55.20
2019-04-16T07:59:32.264Z,53.80
2019-04-16T08:02:13.894Z,53.00
2019-04-16T08:04:54.288Z,53.20
2019-04-16T08:07:34.879Z,50.60
2019-04-16T08:10:16.895Z,50.00
2019-04-16T08:16:07.630Z,48.30
2019-04-16T08:18:51.337Z,49.00
2019-04-16T08:21:32.052Z,47.50
2019-04-16T08:24:17.860Z,46.20
2019-04-16T08:26:59.036Z,47.70
2019-04-16T08:29:39.535Z,46.50
2019-04-16T08:32:20.081Z,46.20
2019-04-16T08:35:01.044Z,45.50
2019-04-16T08:37:48.872Z,46.00
2019-04-16T08:40:24.227Z,46.10
2019-04-16T08:43:05.172Z,48.20
2019-04-16T08:45:45.792Z,47.10
2019-04-16T08:48:26.160Z,47.40
2019-04-16T08:51:07.182Z,47.00
2019-04-16T08:53:48.328Z,47.80
2019-04-16T08:56:28.875Z,49.00
2019-04-16T08:59:11.092Z,49.00
2019-04-16T09:01:54.541Z,47.90
2019-04-16T09:04:35.294Z,49.10
2019-04-16T09:07:35.400Z,46.70
2019-04-16T09:10:23.069Z,47.30
2019-04-16T09:13:04.786Z,52.60
2019-04-16T09:15:45.636Z,52.30
2019-04-16T09:21:36.436Z,46.00
2019-04-16T09:24:22.083Z,46.40
2019-04-16T09:27:08.656Z,46.90
2019-04-16T09:30:11.012Z,46.10
2019-04-16T09:33:16.164Z,50.20
2019-04-16T09:36:15.764Z,46.10
2019-04-16T09:39:09.380Z,46.80
2019-04-16T09:41:51.122Z,48.20
2019-04-16T09:44:35.000Z,49.00
2019-04-16T09:47:14.289Z,47.20
2019-04-16T09:49:54.895Z,47.60
2019-04-16T09:52:36.034Z,50.90
2019-04-16T09:55:19.133Z,49.60
2019-04-16T09:58:05.833Z,48.00
2019-04-16T10:00:47.181Z,46.60
2019-04-16T10:03:34.072Z,46.10
2019-04-16T10:06:14.797Z,48.80
2019-04-16T10:08:56.866Z,49.50
2019-04-16T10:11:37.469Z,50.00
2019-04-16T10:14:18.132Z,48.10
2019-04-16T10:16:59.030Z,44.80
2019-04-16T10:19:43.015Z,46.00
2019-04-16T10:22:22.864Z,50.80
2019-04-16T10:28:15.774Z,46.90
2019-04-16T10:30:57.770Z,46.10
2019-04-16T10:33:39.109Z,46.00
2019-04-16T10:36:19.407Z,45.80
2019-04-16T10:42:30.820Z,50.80
2019-04-16T10:45:31.054Z,48.20
2019-04-16T10:48:30.926Z,48.70
2019-04-16T10:51:30.922Z,46.40
2019-04-16T10:54:37.259Z,45.20
2019-04-16T10:57:38.245Z,45.40
2019-04-16T11:00:37.019Z,45.50
2019-04-16T11:03:22.630Z,46.90
2019-04-16T11:06:09.415Z,46.80
2019-04-16T11:08:50.432Z,47.20
2019-04-16T11:11:31.043Z,52.00
2019-04-16T11:14:11.581Z,46.00
2019-04-16T11:16:52.464Z,46.00
2019-04-16T11:19:33.031Z,48.30
2019-04-16T11:22:13.917Z,51.00
2019-04-16T11:24:54.578Z,47.50
2019-04-16T11:27:35.304Z,48.10
2019-04-16T11:30:34.758Z,48.00
2019-04-16T11:33:15.399Z,46.40
2019-04-16T11:35:55.767Z,49.60
2019-04-16T11:38:36.360Z,47.50
2019-04-16T11:41:17.032Z,48.20
2019-04-16T11:43:57.570Z,47.90
2019-04-16T11:46:38.463Z,49.70
2019-04-16T11:49:20.984Z,50.00
2019-04-16T11:52:01.921Z,53.00
2019-04-16T11:54:46.839Z,47.90
2019-04-16T11:57:25.566Z,50.00
2019-04-16T12:00:09.264Z,48.60
2019-04-16T12:02:56.427Z,51.10
2019-04-16T12:05:57.637Z,49.00
2019-04-16T12:08:51.004Z,51.60
2019-04-16T12:11:39.461Z,52.70
2019-04-16T12:14:42.461Z,51.70
2019-04-16T12:17:41.129Z,53.20
2019-04-16T12:20:41.078Z,54.30
2019-04-16T12:26:41.055Z,53.80
2019-04-16T12:29:43.385Z,54.70
2019-04-16T12:32:43.215Z,56.70
2019-04-16T12:35:45.861Z,55.30
2019-04-16T12:38:35.513Z,53.20
2019-04-16T12:41:30.600Z,55.80
2019-04-16T12:44:44.698Z,58.20
2019-04-16T12:47:37.582Z,56.40
2019-04-16T12:50:37.420Z,58.50
2019-04-16T12:53:37.614Z,56.20
2019-04-16T12:56:41.041Z,58.50
2019-04-16T12:59:23.625Z,58.20
2019-04-16T13:02:23.584Z,54.80
2019-04-16T13:05:21.032Z,55.20
2019-04-16T13:08:19.776Z,56.20
2019-04-16T13:11:19.305Z,57.90
2019-04-16T13:14:12.571Z,56.80
2019-04-16T13:17:03.698Z,55.40
2019-04-16T13:19:56.141Z,56.20
2019-04-16T13:22:39.987Z,56.40
2019-04-16T13:25:24.981Z,55.60
2019-04-16T13:28:06.218Z,56.50
2019-04-16T13:30:47.325Z,58.10
2019-04-16T13:33:27.823Z,59.20
2019-04-16T13:36:08.960Z,59.40
2019-04-16T13:38:54.688Z,58.90
2019-04-16T13:41:35.262Z,59.10
2019-04-16T13:44:17.231Z,58.80
2019-04-16T13:47:01.336Z,58.70
2019-04-16T13:52:36.751Z,59.70
2019-04-16T13:55:38.341Z,57.00
2019-04-16T13:58:38.538Z,58.80
2019-04-16T14:01:22.508Z,60.10
2019-04-16T14:04:03.905Z,60.20
2019-04-16T14:06:46.279Z,58.90
2019-04-16T14:09:27.167Z,58.30
2019-04-16T14:12:08.059Z,58.50
2019-04-16T14:14:49.507Z,60.10
2019-04-16T14:17:30.696Z,58.90
2019-04-16T14:20:12.793Z,56.70
2019-04-16T14:22:54.203Z,57.40
2019-04-16T14:25:35.113Z,59.30
2019-04-16T14:28:18.058Z,59.70
2019-04-16T14:30:58.604Z,57.60
2019-04-16T14:33:45.576Z,57.40
2019-04-16T14:36:26.314Z,56.80
2019-04-16T14:42:19.175Z,59.20
2019-04-16T14:47:56.060Z,58.40
2019-04-16T14:50:36.725Z,59.80
2019-04-16T14:53:36.780Z,59.40
2019-04-16T14:56:21.837Z,59.50
2019-04-16T15:02:34.625Z,59.30
2019-04-16T15:05:34.580Z,59.40
2019-04-16T15:08:35.115Z,58.80
2019-04-16T15:11:35.161Z,59.40
2019-04-16T15:14:26.115Z,62.50
2019-04-16T15:17:17.038Z,63.30
2019-04-16T15:20:17.064Z,60.10
2019-04-16T15:23:17.158Z,60.00
2019-04-16T15:26:16.583Z,61.80
2019-04-16T15:29:06.060Z,63.00
2019-04-16T15:31:54.785Z,63.30
2019-04-16T15:34:42.808Z,61.20
2019-04-16T15:37:33.415Z,64.70
2019-04-16T15:40:20.815Z,65.20
2019-04-16T15:43:26.866Z,66.90
2019-04-16T15:46:27.082Z,64.80
2019-04-16T15:49:32.283Z,63.70
2019-04-16T15:52:32.295Z,68.10
2019-04-16T15:55:32.530Z,66.00
2019-04-16T15:58:32.804Z,67.10
2019-04-16T16:01:20.484Z,67.80
2019-04-16T16:04:22.532Z,67.50
2019-04-16T16:07:12.383Z,66.00
2019-04-16T16:10:13.706Z,66.30
2019-04-16T16:12:54.609Z,66.90
2019-04-16T16:15:40.197Z,64.70
2019-04-16T16:18:17.335Z,65.80
2019-04-16T16:20:58.040Z,70.30
2019-04-16T16:29:36.285Z,66.40
2019-04-16T16:32:16.673Z,67.90
2019-04-16T16:34:57.414Z,68.80
2019-04-16T16:37:38.478Z,68.80
2019-04-16T16:40:19.049Z,71.20
2019-04-16T16:43:00.017Z,72.20
2019-04-16T16:45:59.878Z,71.10
2019-04-16T16:48:40.783Z,73.00
2019-04-16T16:51:23.209Z,78.60
2019-04-16T16:54:10.140Z,81.80
2019-04-16T16:57:09.973Z,82.50
2019-04-16T16:59:56.183Z,85.40
2019-04-16T17:03:01.633Z,86.00
2019-04-16T17:05:42.226Z,85.80
2019-04-16T17:08:22.880Z,84.90
2019-04-16T17:11:16.279Z,87.60
2019-04-16T17:13:46.620Z,89.70
2019-04-16T17:16:27.246Z,91.10
2019-04-16T17:19:07.825Z,91.70
2019-04-16T17:21:48.729Z,92.20
2019-04-16T17:24:29.442Z,92.00
2019-04-16T17:27:10.600Z,94.10
2019-04-16T17:29:51.213Z,95.10
2019-04-16T17:32:31.866Z,94.60
2019-04-16T17:35:15.540Z,94.00
2019-04-16T17:37:55.402Z,95.40
2019-04-16T17:41:00.993Z,99.90
2019-04-16T17:44:03.934Z,99.90
2019-04-16T17:47:04.222Z,99.90
2019-04-16T17:50:07.955Z,99.90
2019-04-16T17:53:07.569Z,99.90
2019-04-16T17:56:07.792Z,99.90
2019-04-16T17:59:09.568Z,99.90
2019-04-16T18:02:09.061Z,99.90
2019-04-16T18:05:08.730Z,99.90
2019-04-16T18:08:09.083Z,99.90
2019-04-16T18:14:07.639Z,99.90
2019-04-16T18:17:06.666Z,99.90
2019-04-16T18:20:06.302Z,99.90
2019-04-16T18:22:55.587Z,99.90
2019-04-16T18:25:57.262Z,99.90
2019-04-16T18:28:42.093Z,99.90
2019-04-16T18:31:42.491Z,99.90
2019-04-16T18:34:43.522Z,99.90
2019-04-16T18:37:49.968Z,99.90
2019-04-16T18:40:49.659Z,99.90
2019-04-16T18:43:49.091Z,99.90
2019-04-16T18:46:55.265Z,99.90
2019-04-16T18:49:36.424Z,99.90
2019-04-16T18:52:17.416Z,99.90
2019-04-16T18:54:57.908Z,99.90
2019-04-16T18:57:39.294Z,99.90
2019-04-16T19:00:39.084Z,99.90
2019-04-16T19:03:22.408Z,99.90
2019-04-16T19:06:03.415Z,99.90
2019-04-16T19:08:44.151Z,99.90
2019-04-16T19:11:25.036Z,99.90
2019-04-16T19:14:05.678Z,99.90
2019-04-16T19:16:46.335Z,99.90
2019-04-16T19:19:28.493Z,99.90
2019-04-16T19:22:09.340Z,99.90
2019-04-16T19:24:49.751Z,99.90
2019-04-16T19:27:30.835Z,99.90
2019-04-16T19:30:12.606Z,99.90
2019-04-16T19:32:53.469Z,99.90
2019-04-16T19:35:34.220Z,99.90
2019-04-16T19:38:15.006Z,99.90
2019-04-16T19:40:56.218Z,99.90
2019-04-16T19:43:36.858Z,99.90
2019-04-16T19:46:17.203Z,99.90
2019-04-16T19:49:00.336Z,99.90
2019-04-16T19:51:41.282Z,99.90
2019-04-16T19:54:22.550Z,99.90
2019-04-16T19:57:03.095Z,99.90
2019-04-16T19:59:46.383Z,99.90
2019-04-16T20:02:26.472Z,99.90
2019-04-16T20:05:07.307Z,99.90
2019-04-16T20:07:47.942Z,99.90
2019-04-16T20:10:28.603Z,99.90
2019-04-16T20:13:09.107Z,99.90
2019-04-16T20:15:49.721Z,99.90
2019-04-16T20:18:30.540Z,99.90
2019-04-16T20:21:11.036Z,99.90
2019-04-16T20:23:51.692Z,99.90
2019-04-16T20:26:33.608Z,99.90
2019-04-16T20:29:14.853Z,99.90
2019-04-16T20:31:55.572Z,99.90
2019-04-16T20:34:36.268Z,99.90
2019-04-16T20:37:16.972Z,99.90
2019-04-16T20:39:57.641Z,99.90
2019-04-16T20:42:38.428Z,99.90
2019-04-16T20:45:19.154Z,99.90
2019-04-16T20:48:00.444Z,99.90
2019-04-16T20:50:41.140Z,99.90
2019-04-16T20:53:21.992Z,99.90
2019-04-16T20:56:02.917Z,99.90
2019-04-16T20:58:43.789Z,99.90
2019-04-16T21:01:33.739Z,99.90
2019-04-16T21:04:07.552Z,99.90
2019-04-16T21:06:48.457Z,99.90
2019-04-16T21:09:30.901Z,99.90
2019-04-16T21:12:13.171Z,99.90
2019-04-16T21:14:55.465Z,99.90
2019-04-16T21:17:39.129Z,99.90
2019-04-16T21:20:20.264Z,99.90
2019-04-16T21:23:03.477Z,99.90
2019-04-16T21:25:45.903Z,99.90
2019-04-16T21:31:28.788Z,99.90
2019-04-16T21:37:27.107Z,99.90
2019-04-16T21:40:07.584Z,99.90
2019-04-16T21:42:48.300Z,99.90
2019-04-16T21:45:29.254Z,99.90
2019-04-16T21:48:12.378Z,99.90
2019-04-16T21:50:54.117Z,99.90
2019-04-16T21:53:35.444Z,99.90
2019-04-16T21:56:16.132Z,99.90
2019-04-16T21:58:57.107Z,99.90
2019-04-16T22:01:43.151Z,99.90
2019-04-16T22:04:24.115Z,99.90
2019-04-16T22:07:07.450Z,99.90
2019-04-16T22:09:47.728Z,99.90
2019-04-16T22:12:28.376Z,99.90
2019-04-16T22:15:08.802Z,99.90
2019-04-16T22:17:49.423Z,99.90
2019-04-16T22:20:31.850Z,99.90
2019-04-16T22:23:12.309Z,99.90
2019-04-16T22:25:52.829Z,99.90
2019-04-16T22:28:33.616Z,99.90
2019-04-16T22:31:13.984Z,99.90
2019-04-16T22:33:54.654Z,99.90
2019-04-16T22:36:35.459Z,99.90
2019-04-16T22:45:32.524Z,99.90
2019-04-16T22:48:12.864Z,99.90
2019-04-16T22:50:53.563Z,99.90
2019-04-16T22:53:34.552Z,99.90
2019-04-16T22:56:15.312Z,99.90
2019-04-16T22:58:56.256Z,99.90
2019-04-16T23:01:38.560Z,99.90
2019-04-16T23:04:19.088Z,99.90
2019-04-16T23:06:59.888Z,99.90
2019-04-16T23:09:40.439Z,99.90
2019-04-16T23:12:27.148Z,99.90
2019-04-16T23:15:05.227Z,99.90
2019-04-16T23:17:46.885Z,99.90
2019-04-16T23:20:29.762Z,99.90
2019-04-16T23:23:10.090Z,99.90
2019-04-16T23:25:50.513Z,99.90
2019-04-16T23:28:30.873Z,99.90
2019-04-16T23:31:11.633Z,99.90
2019-04-16T23:33:52.074Z,99.90
2019-04-16T23:36:33.369Z,99.90
2019-04-16T23:39:14.198Z,99.90
2019-04-16T23:41:54.656Z,99.90
2019-04-16T23:45:00.556Z,99.90
2019-04-16T23:51:05.025Z,99.90
2019-04-16T23:53:58.817Z,99.90
2019-04-16T23:56:44.701Z,99.90
2019-04-16T23:59:45.008Z,99.90
